sensor_id;sensor_type;location;lat;lon;timestamp;P1;durP1;ratioP1;P2;durP2;ratioP2
34212;SDS011;20477;51.390;8.102;2023-08-30T00:00:03;14.82;;;8.25;;
34212;SDS011;20477;51.390;8.102;2023-08-30T00:02:33;13.98;;;8.05;;
34212;SDS011;20477;51.390;8.102;2023-08-30T00:05:04;14.68;;;8.80;;
34212;SDS011;20477;51.390;8.102;2023-08-30T00:07:33;13.90;;;8.52;;
34212;SDS011;20477;51.390;8.102;2023-08-30T00:10:02;17.25;;;8.43;;
34212;SDS011;20477;51.390;8.102;2023-08-30T00:12:31;9.93;;;7.93;;
34212;SDS011;20477;51.390;8.102;2023-08-30T00:14:59;13.50;;;8.50;;
34212;SDS011;20477;51.390;8.102;2023-08-30T00:17:28;16.85;;;8.90;;
34212;SDS011;20477;51.390;8.102;2023-08-30T00:19:56;10.88;;;8.35;;
34212;SDS011;20477;51.390;8.102;2023-08-30T00:22:26;11.63;;;9.18;;
34212;SDS011;20477;51.390;8.102;2023-08-30T00:24:54;13.45;;;9.30;;
34212;SDS011;20477;51.390;8.102;2023-08-30T00:27:23;13.85;;;9.35;;
34212;SDS011;20477;51.390;8.102;2023-08-30T00:29:51;13.73;;;8.98;;
34212;SDS011;20477;51.390;8.102;2023-08-30T00:32:20;16.42;;;9.57;;
34212;SDS011;20477;51.390;8.102;2023-08-30T00:34:49;13.55;;;9.27;;
34212;SDS011;20477;51.390;8.102;2023-08-30T00:37:18;13.85;;;9.32;;
34212;SDS011;20477;51.390;8.102;2023-08-30T00:39:47;17.88;;;10.02;;
34212;SDS011;20477;51.390;8.102;2023-08-30T00:42:16;18.60;;;10.30;;
34212;SDS011;20477;51.390;8.102;2023-08-30T00:44:44;15.35;;;8.90;;
34212;SDS011;20477;51.390;8.102;2023-08-30T00:47:13;17.58;;;9.73;;
34212;SDS011;20477;51.390;8.102;2023-08-30T00:49:41;16.67;;;10.13;;
34212;SDS011;20477;51.390;8.102;2023-08-30T00:52:10;19.95;;;9.60;;
34212;SDS011;20477;51.390;8.102;2023-08-30T00:54:39;12.10;;;10.00;;
34212;SDS011;20477;51.390;8.102;2023-08-30T00:57:09;12.32;;;9.73;;
34212;SDS011;20477;51.390;8.102;2023-08-30T00:59:37;13.27;;;10.02;;
34212;SDS011;20477;51.390;8.102;2023-08-30T01:02:06;12.73;;;10.02;;
34212;SDS011;20477;51.390;8.102;2023-08-30T01:04:35;15.18;;;10.95;;
34212;SDS011;20477;51.390;8.102;2023-08-30T01:07:03;15.73;;;10.35;;
34212;SDS011;20477;51.390;8.102;2023-08-30T01:09:34;14.75;;;9.75;;
34212;SDS011;20477;51.390;8.102;2023-08-30T01:12:04;18.98;;;10.50;;
34212;SDS011;20477;51.390;8.102;2023-08-30T01:14:40;12.85;;;9.75;;
34212;SDS011;20477;51.390;8.102;2023-08-30T01:17:16;12.73;;;10.10;;
34212;SDS011;20477;51.390;8.102;2023-08-30T01:19:47;11.85;;;9.57;;
34212;SDS011;20477;51.390;8.102;2023-08-30T01:22:27;16.40;;;10.60;;
34212;SDS011;20477;51.390;8.102;2023-08-30T01:25:10;13.98;;;10.10;;
34212;SDS011;20477;51.390;8.102;2023-08-30T01:27:50;17.05;;;9.65;;
34212;SDS011;20477;51.390;8.102;2023-08-30T01:30:21;16.15;;;10.73;;
34212;SDS011;20477;51.390;8.102;2023-08-30T01:32:53;15.13;;;10.48;;
34212;SDS011;20477;51.390;8.102;2023-08-30T01:35:23;16.58;;;9.88;;
34212;SDS011;20477;51.390;8.102;2023-08-30T01:37:56;14.38;;;10.88;;
34212;SDS011;20477;51.390;8.102;2023-08-30T01:40:27;17.23;;;11.48;;
34212;SDS011;20477;51.390;8.102;2023-08-30T01:45:30;12.70;;;9.93;;
34212;SDS011;20477;51.390;8.102;2023-08-30T01:48:02;18.58;;;10.40;;
34212;SDS011;20477;51.390;8.102;2023-08-30T01:50:33;13.25;;;10.68;;
34212;SDS011;20477;51.390;8.102;2023-08-30T01:53:02;14.57;;;10.20;;
34212;SDS011;20477;51.390;8.102;2023-08-30T01:55:31;18.60;;;11.00;;
34212;SDS011;20477;51.390;8.102;2023-08-30T01:58:03;15.15;;;10.68;;
34212;SDS011;20477;51.390;8.102;2023-08-30T02:00:32;19.55;;;10.25;;
34212;SDS011;20477;51.390;8.102;2023-08-30T02:03:06;16.98;;;11.38;;
34212;SDS011;20477;51.390;8.102;2023-08-30T02:05:36;17.42;;;10.82;;
34212;SDS011;20477;51.390;8.102;2023-08-30T02:08:15;16.83;;;11.35;;
34212;SDS011;20477;51.390;8.102;2023-08-30T02:10:47;19.33;;;12.48;;
34212;SDS011;20477;51.390;8.102;2023-08-30T02:13:25;17.80;;;11.70;;
34212;SDS011;20477;51.390;8.102;2023-08-30T02:15:55;17.25;;;11.45;;
34212;SDS011;20477;51.390;8.102;2023-08-30T02:18:26;14.68;;;10.93;;
34212;SDS011;20477;51.390;8.102;2023-08-30T02:20:58;18.25;;;11.15;;
34212;SDS011;20477;51.390;8.102;2023-08-30T02:23:27;19.80;;;11.27;;
34212;SDS011;20477;51.390;8.102;2023-08-30T02:25:55;16.67;;;11.60;;
34212;SDS011;20477;51.390;8.102;2023-08-30T02:28:25;18.42;;;10.77;;
34212;SDS011;20477;51.390;8.102;2023-08-30T02:30:54;14.70;;;9.65;;
34212;SDS011;20477;51.390;8.102;2023-08-30T02:33:26;20.60;;;10.52;;
34212;SDS011;20477;51.390;8.102;2023-08-30T02:36:05;14.98;;;10.63;;
34212;SDS011;20477;51.390;8.102;2023-08-30T02:38:34;14.93;;;10.73;;
34212;SDS011;20477;51.390;8.102;2023-08-30T02:41:03;13.00;;;10.15;;
34212;SDS011;20477;51.390;8.102;2023-08-30T02:43:32;14.90;;;10.88;;
34212;SDS011;20477;51.390;8.102;2023-08-30T02:46:01;14.70;;;11.07;;
34212;SDS011;20477;51.390;8.102;2023-08-30T02:48:30;16.08;;;11.88;;
34212;SDS011;20477;51.390;8.102;2023-08-30T02:51:00;20.25;;;10.95;;
34212;SDS011;20477;51.390;8.102;2023-08-30T02:53:28;17.42;;;11.27;;
34212;SDS011;20477;51.390;8.102;2023-08-30T02:55:56;18.45;;;11.65;;
34212;SDS011;20477;51.390;8.102;2023-08-30T02:58:25;22.55;;;12.10;;
34212;SDS011;20477;51.390;8.102;2023-08-30T03:00:55;20.27;;;12.60;;
34212;SDS011;20477;51.390;8.102;2023-08-30T03:03:23;17.45;;;11.68;;
34212;SDS011;20477;51.390;8.102;2023-08-30T03:05:52;17.17;;;11.15;;
34212;SDS011;20477;51.390;8.102;2023-08-30T03:08:20;14.80;;;10.27;;
34212;SDS011;20477;51.390;8.102;2023-08-30T03:10:48;17.73;;;11.70;;
34212;SDS011;20477;51.390;8.102;2023-08-30T03:13:17;16.70;;;11.85;;
34212;SDS011;20477;51.390;8.102;2023-08-30T03:15:45;22.48;;;12.68;;
34212;SDS011;20477;51.390;8.102;2023-08-30T03:18:16;17.98;;;11.63;;
34212;SDS011;20477;51.390;8.102;2023-08-30T03:20:44;31.23;;;12.45;;
34212;SDS011;20477;51.390;8.102;2023-08-30T03:23:12;14.40;;;10.70;;
34212;SDS011;20477;51.390;8.102;2023-08-30T03:25:41;17.13;;;11.45;;
34212;SDS011;20477;51.390;8.102;2023-08-30T03:28:09;15.80;;;9.77;;
34212;SDS011;20477;51.390;8.102;2023-08-30T03:30:38;11.75;;;9.27;;
34212;SDS011;20477;51.390;8.102;2023-08-30T03:33:06;17.88;;;11.68;;
34212;SDS011;20477;51.390;8.102;2023-08-30T03:35:36;19.23;;;11.40;;
34212;SDS011;20477;51.390;8.102;2023-08-30T03:38:04;17.10;;;11.38;;
34212;SDS011;20477;51.390;8.102;2023-08-30T03:40:33;15.25;;;11.45;;
34212;SDS011;20477;51.390;8.102;2023-08-30T03:43:02;22.85;;;13.38;;
34212;SDS011;20477;51.390;8.102;2023-08-30T03:45:33;17.63;;;12.88;;
34212;SDS011;20477;51.390;8.102;2023-08-30T03:48:03;19.93;;;10.93;;
34212;SDS011;20477;51.390;8.102;2023-08-30T03:50:33;20.13;;;11.80;;
34212;SDS011;20477;51.390;8.102;2023-08-30T03:53:03;18.42;;;11.98;;
34212;SDS011;20477;51.390;8.102;2023-08-30T03:55:31;17.92;;;12.27;;
34212;SDS011;20477;51.390;8.102;2023-08-30T03:58:00;21.65;;;13.98;;
34212;SDS011;20477;51.390;8.102;2023-08-30T04:00:30;20.58;;;13.15;;
34212;SDS011;20477;51.390;8.102;2023-08-30T04:02:59;18.25;;;13.25;;
34212;SDS011;20477;51.390;8.102;2023-08-30T04:05:31;19.23;;;13.13;;
34212;SDS011;20477;51.390;8.102;2023-08-30T04:08:02;19.45;;;13.27;;
34212;SDS011;20477;51.390;8.102;2023-08-30T04:10:34;24.00;;;13.20;;
34212;SDS011;20477;51.390;8.102;2023-08-30T04:13:03;17.30;;;12.38;;
34212;SDS011;20477;51.390;8.102;2023-08-30T04:15:32;21.42;;;12.25;;
34212;SDS011;20477;51.390;8.102;2023-08-30T04:18:01;18.05;;;13.90;;
34212;SDS011;20477;51.390;8.102;2023-08-30T04:20:31;21.42;;;12.07;;
34212;SDS011;20477;51.390;8.102;2023-08-30T04:23:00;16.10;;;12.73;;
34212;SDS011;20477;51.390;8.102;2023-08-30T04:25:30;19.33;;;12.93;;
34212;SDS011;20477;51.390;8.102;2023-08-30T04:28:01;21.33;;;12.00;;
34212;SDS011;20477;51.390;8.102;2023-08-30T04:30:30;20.50;;;11.95;;
34212;SDS011;20477;51.390;8.102;2023-08-30T04:32:58;20.88;;;11.93;;
34212;SDS011;20477;51.390;8.102;2023-08-30T04:35:29;20.10;;;12.02;;
34212;SDS011;20477;51.390;8.102;2023-08-30T04:37:57;17.05;;;12.27;;
34212;SDS011;20477;51.390;8.102;2023-08-30T04:40:27;19.08;;;12.05;;
34212;SDS011;20477;51.390;8.102;2023-08-30T04:42:57;19.10;;;11.88;;
34212;SDS011;20477;51.390;8.102;2023-08-30T04:45:26;18.25;;;12.45;;
34212;SDS011;20477;51.390;8.102;2023-08-30T04:47:56;19.70;;;12.30;;
34212;SDS011;20477;51.390;8.102;2023-08-30T04:50:24;23.42;;;12.45;;
34212;SDS011;20477;51.390;8.102;2023-08-30T04:52:53;21.05;;;12.25;;
34212;SDS011;20477;51.390;8.102;2023-08-30T04:55:23;20.02;;;12.70;;
34212;SDS011;20477;51.390;8.102;2023-08-30T04:57:53;20.67;;;12.55;;
34212;SDS011;20477;51.390;8.102;2023-08-30T05:00:21;18.13;;;11.75;;
34212;SDS011;20477;51.390;8.102;2023-08-30T05:02:51;20.92;;;12.00;;
34212;SDS011;20477;51.390;8.102;2023-08-30T05:05:19;17.33;;;11.85;;
34212;SDS011;20477;51.390;8.102;2023-08-30T05:07:48;19.88;;;11.90;;
34212;SDS011;20477;51.390;8.102;2023-08-30T05:10:16;19.90;;;13.50;;
34212;SDS011;20477;51.390;8.102;2023-08-30T05:12:45;20.85;;;13.32;;
34212;SDS011;20477;51.390;8.102;2023-08-30T05:15:19;26.13;;;12.07;;
34212;SDS011;20477;51.390;8.102;2023-08-30T05:17:47;18.48;;;12.77;;
34212;SDS011;20477;51.390;8.102;2023-08-30T05:20:16;19.55;;;13.40;;
34212;SDS011;20477;51.390;8.102;2023-08-30T05:22:45;18.63;;;13.95;;
34212;SDS011;20477;51.390;8.102;2023-08-30T05:25:13;19.25;;;12.88;;
34212;SDS011;20477;51.390;8.102;2023-08-30T05:27:41;18.75;;;12.35;;
34212;SDS011;20477;51.390;8.102;2023-08-30T05:30:11;18.33;;;12.73;;
34212;SDS011;20477;51.390;8.102;2023-08-30T05:32:44;20.08;;;13.48;;
34212;SDS011;20477;51.390;8.102;2023-08-30T05:35:13;22.55;;;13.20;;
34212;SDS011;20477;51.390;8.102;2023-08-30T05:37:41;19.63;;;12.70;;
34212;SDS011;20477;51.390;8.102;2023-08-30T05:40:11;18.55;;;13.65;;
34212;SDS011;20477;51.390;8.102;2023-08-30T05:42:43;21.77;;;12.93;;
34212;SDS011;20477;51.390;8.102;2023-08-30T05:45:12;19.58;;;13.13;;
34212;SDS011;20477;51.390;8.102;2023-08-30T05:47:40;19.85;;;14.27;;
34212;SDS011;20477;51.390;8.102;2023-08-30T05:50:10;20.65;;;15.05;;
34212;SDS011;20477;51.390;8.102;2023-08-30T05:52:38;24.67;;;14.07;;
34212;SDS011;20477;51.390;8.102;2023-08-30T05:55:08;18.95;;;14.63;;
34212;SDS011;20477;51.390;8.102;2023-08-30T05:57:36;18.95;;;13.73;;
34212;SDS011;20477;51.390;8.102;2023-08-30T06:00:05;24.48;;;14.95;;
34212;SDS011;20477;51.390;8.102;2023-08-30T06:02:35;19.40;;;13.95;;
34212;SDS011;20477;51.390;8.102;2023-08-30T06:05:04;21.15;;;14.38;;
34212;SDS011;20477;51.390;8.102;2023-08-30T06:07:35;17.10;;;14.07;;
34212;SDS011;20477;51.390;8.102;2023-08-30T06:10:03;21.42;;;13.32;;
34212;SDS011;20477;51.390;8.102;2023-08-30T06:12:33;22.42;;;13.90;;
34212;SDS011;20477;51.390;8.102;2023-08-30T06:15:01;24.63;;;12.88;;
34212;SDS011;20477;51.390;8.102;2023-08-30T06:17:31;21.58;;;13.50;;
34212;SDS011;20477;51.390;8.102;2023-08-30T06:19:59;25.30;;;13.18;;
34212;SDS011;20477;51.390;8.102;2023-08-30T06:22:29;20.65;;;13.00;;
34212;SDS011;20477;51.390;8.102;2023-08-30T06:24:59;15.25;;;12.98;;
34212;SDS011;20477;51.390;8.102;2023-08-30T06:27:27;18.35;;;12.68;;
34212;SDS011;20477;51.390;8.102;2023-08-30T06:29:56;16.63;;;12.95;;
34212;SDS011;20477;51.390;8.102;2023-08-30T06:32:24;18.65;;;13.07;;
34212;SDS011;20477;51.390;8.102;2023-08-30T06:34:54;18.98;;;13.93;;
34212;SDS011;20477;51.390;8.102;2023-08-30T06:37:22;19.52;;;12.77;;
34212;SDS011;20477;51.390;8.102;2023-08-30T06:39:51;16.73;;;12.23;;
34212;SDS011;20477;51.390;8.102;2023-08-30T06:42:23;19.27;;;13.00;;
34212;SDS011;20477;51.390;8.102;2023-08-30T06:44:51;17.45;;;12.52;;
34212;SDS011;20477;51.390;8.102;2023-08-30T06:47:20;17.15;;;12.23;;
34212;SDS011;20477;51.390;8.102;2023-08-30T06:49:48;16.55;;;12.95;;
34212;SDS011;20477;51.390;8.102;2023-08-30T06:52:17;20.33;;;13.93;;
34212;SDS011;20477;51.390;8.102;2023-08-30T06:54:45;20.50;;;13.32;;
34212;SDS011;20477;51.390;8.102;2023-08-30T06:57:13;19.23;;;13.43;;
34212;SDS011;20477;51.390;8.102;2023-08-30T06:59:43;16.17;;;12.57;;
34212;SDS011;20477;51.390;8.102;2023-08-30T07:02:12;15.88;;;12.68;;
34212;SDS011;20477;51.390;8.102;2023-08-30T07:04:40;20.55;;;13.35;;
34212;SDS011;20477;51.390;8.102;2023-08-30T07:07:09;16.33;;;13.18;;
34212;SDS011;20477;51.390;8.102;2023-08-30T07:09:39;19.20;;;13.40;;
34212;SDS011;20477;51.390;8.102;2023-08-30T07:12:08;19.73;;;12.90;;
34212;SDS011;20477;51.390;8.102;2023-08-30T07:14:36;24.35;;;13.52;;
34212;SDS011;20477;51.390;8.102;2023-08-30T07:17:06;18.45;;;12.63;;
34212;SDS011;20477;51.390;8.102;2023-08-30T07:19:34;20.63;;;12.75;;
34212;SDS011;20477;51.390;8.102;2023-08-30T07:22:03;18.73;;;12.90;;
34212;SDS011;20477;51.390;8.102;2023-08-30T07:24:31;16.92;;;13.10;;
34212;SDS011;20477;51.390;8.102;2023-08-30T07:27:00;20.40;;;13.98;;
34212;SDS011;20477;51.390;8.102;2023-08-30T07:29:28;22.75;;;14.73;;
34212;SDS011;20477;51.390;8.102;2023-08-30T07:31:57;19.08;;;14.88;;
34212;SDS011;20477;51.390;8.102;2023-08-30T07:34:26;16.17;;;13.88;;
34212;SDS011;20477;51.390;8.102;2023-08-30T07:36:55;21.10;;;14.65;;
34212;SDS011;20477;51.390;8.102;2023-08-30T07:39:23;20.42;;;13.43;;
34212;SDS011;20477;51.390;8.102;2023-08-30T07:41:52;21.05;;;14.43;;
34212;SDS011;20477;51.390;8.102;2023-08-30T07:44:20;23.45;;;14.93;;
34212;SDS011;20477;51.390;8.102;2023-08-30T07:46:49;19.67;;;15.07;;
34212;SDS011;20477;51.390;8.102;2023-08-30T07:49:17;26.20;;;16.08;;
34212;SDS011;20477;51.390;8.102;2023-08-30T07:51:47;24.17;;;17.27;;
34212;SDS011;20477;51.390;8.102;2023-08-30T07:54:15;22.55;;;16.13;;
34212;SDS011;20477;51.390;8.102;2023-08-30T07:56:44;23.33;;;16.65;;
34212;SDS011;20477;51.390;8.102;2023-08-30T07:59:12;21.70;;;15.38;;
34212;SDS011;20477;51.390;8.102;2023-08-30T08:01:41;24.42;;;17.73;;
34212;SDS011;20477;51.390;8.102;2023-08-30T08:04:09;28.60;;;16.67;;
34212;SDS011;20477;51.390;8.102;2023-08-30T08:06:38;22.17;;;17.73;;
34212;SDS011;20477;51.390;8.102;2023-08-30T08:09:07;24.30;;;17.17;;
34212;SDS011;20477;51.390;8.102;2023-08-30T08:11:36;23.52;;;17.70;;
34212;SDS011;20477;51.390;8.102;2023-08-30T08:14:06;19.73;;;16.52;;
34212;SDS011;20477;51.390;8.102;2023-08-30T08:16:34;28.40;;;16.70;;
34212;SDS011;20477;51.390;8.102;2023-08-30T08:19:03;20.45;;;15.73;;
34212;SDS011;20477;51.390;8.102;2023-08-30T08:21:32;26.23;;;17.23;;
34212;SDS011;20477;51.390;8.102;2023-08-30T08:24:01;22.33;;;15.85;;
34212;SDS011;20477;51.390;8.102;2023-08-30T08:26:31;19.65;;;16.23;;
34212;SDS011;20477;51.390;8.102;2023-08-30T08:28:59;19.73;;;15.07;;
34212;SDS011;20477;51.390;8.102;2023-08-30T08:31:28;20.33;;;14.43;;
34212;SDS011;20477;51.390;8.102;2023-08-30T08:34:07;16.35;;;12.93;;
34212;SDS011;20477;51.390;8.102;2023-08-30T08:36:37;15.85;;;11.80;;
34212;SDS011;20477;51.390;8.102;2023-08-30T08:39:08;13.07;;;10.25;;
34212;SDS011;20477;51.390;8.102;2023-08-30T08:41:40;13.95;;;9.40;;
34212;SDS011;20477;51.390;8.102;2023-08-30T08:46:40;14.32;;;8.02;;
34212;SDS011;20477;51.390;8.102;2023-08-30T08:49:11;12.65;;;6.97;;
34212;SDS011;20477;51.390;8.102;2023-08-30T08:51:41;12.75;;;7.97;;
34212;SDS011;20477;51.390;8.102;2023-08-30T08:54:10;11.52;;;6.78;;
34212;SDS011;20477;51.390;8.102;2023-08-30T08:56:41;7.65;;;5.53;;
34212;SDS011;20477;51.390;8.102;2023-08-30T08:59:11;7.63;;;5.57;;
34212;SDS011;20477;51.390;8.102;2023-08-30T09:01:39;9.15;;;6.15;;
34212;SDS011;20477;51.390;8.102;2023-08-30T09:04:08;9.48;;;6.30;;
34212;SDS011;20477;51.390;8.102;2023-08-30T09:06:38;8.35;;;5.97;;
34212;SDS011;20477;51.390;8.102;2023-08-30T09:09:07;7.93;;;5.65;;
34212;SDS011;20477;51.390;8.102;2023-08-30T09:11:36;9.73;;;6.28;;
34212;SDS011;20477;51.390;8.102;2023-08-30T09:14:18;9.25;;;6.15;;
34212;SDS011;20477;51.390;8.102;2023-08-30T09:16:56;9.93;;;7.07;;
34212;SDS011;20477;51.390;8.102;2023-08-30T09:19:27;9.60;;;6.40;;
34212;SDS011;20477;51.390;8.102;2023-08-30T09:21:56;9.13;;;5.68;;
34212;SDS011;20477;51.390;8.102;2023-08-30T09:24:36;8.23;;;6.10;;
34212;SDS011;20477;51.390;8.102;2023-08-30T09:27:06;10.73;;;6.13;;
34212;SDS011;20477;51.390;8.102;2023-08-30T09:29:36;8.90;;;5.47;;
34212;SDS011;20477;51.390;8.102;2023-08-30T09:32:07;8.73;;;5.47;;
34212;SDS011;20477;51.390;8.102;2023-08-30T09:34:36;11.77;;;5.70;;
34212;SDS011;20477;51.390;8.102;2023-08-30T09:37:19;9.00;;;5.32;;
34212;SDS011;20477;51.390;8.102;2023-08-30T09:39:48;11.43;;;6.80;;
34212;SDS011;20477;51.390;8.102;2023-08-30T09:42:17;8.82;;;5.32;;
34212;SDS011;20477;51.390;8.102;2023-08-30T09:44:47;9.05;;;5.72;;
34212;SDS011;20477;51.390;8.102;2023-08-30T09:47:16;12.82;;;5.90;;
34212;SDS011;20477;51.390;8.102;2023-08-30T09:49:45;9.07;;;5.65;;
34212;SDS011;20477;51.390;8.102;2023-08-30T09:52:14;8.40;;;4.80;;
34212;SDS011;20477;51.390;8.102;2023-08-30T09:54:43;12.60;;;5.82;;
34212;SDS011;20477;51.390;8.102;2023-08-30T09:57:14;9.15;;;4.80;;
34212;SDS011;20477;51.390;8.102;2023-08-30T09:59:43;6.75;;;4.85;;
34212;SDS011;20477;51.390;8.102;2023-08-30T10:02:14;6.07;;;4.25;;
34212;SDS011;20477;51.390;8.102;2023-08-30T10:04:44;8.35;;;4.57;;
34212;SDS011;20477;51.390;8.102;2023-08-30T10:07:13;8.18;;;4.70;;
34212;SDS011;20477;51.390;8.102;2023-08-30T10:09:43;8.05;;;4.43;;
34212;SDS011;20477;51.390;8.102;2023-08-30T10:12:32;9.40;;;5.45;;
34212;SDS011;20477;51.390;8.102;2023-08-30T10:15:00;10.45;;;4.72;;
34212;SDS011;20477;51.390;8.102;2023-08-30T10:17:32;9.23;;;4.53;;
34212;SDS011;20477;51.390;8.102;2023-08-30T10:20:03;10.10;;;5.03;;
34212;SDS011;20477;51.390;8.102;2023-08-30T10:22:34;7.35;;;3.85;;
34212;SDS011;20477;51.390;8.102;2023-08-30T10:25:05;8.77;;;4.65;;
34212;SDS011;20477;51.390;8.102;2023-08-30T10:27:41;5.88;;;3.90;;
34212;SDS011;20477;51.390;8.102;2023-08-30T10:30:13;9.07;;;4.82;;
34212;SDS011;20477;51.390;8.102;2023-08-30T10:32:45;6.88;;;3.92;;
34212;SDS011;20477;51.390;8.102;2023-08-30T10:35:15;6.72;;;4.13;;
34212;SDS011;20477;51.390;8.102;2023-08-30T10:37:53;6.13;;;3.88;;
34212;SDS011;20477;51.390;8.102;2023-08-30T10:40:23;6.05;;;4.05;;
34212;SDS011;20477;51.390;8.102;2023-08-30T10:43:00;8.75;;;4.22;;
34212;SDS011;20477;51.390;8.102;2023-08-30T10:45:30;7.95;;;4.20;;
34212;SDS011;20477;51.390;8.102;2023-08-30T10:48:00;8.45;;;3.75;;
34212;SDS011;20477;51.390;8.102;2023-08-30T10:50:31;7.13;;;3.72;;
34212;SDS011;20477;51.390;8.102;2023-08-30T10:53:01;4.95;;;3.10;;
34212;SDS011;20477;51.390;8.102;2023-08-30T10:55:32;9.90;;;3.38;;
34212;SDS011;20477;51.390;8.102;2023-08-30T10:58:01;8.18;;;3.72;;
34212;SDS011;20477;51.390;8.102;2023-08-30T11:00:31;6.90;;;3.00;;
34212;SDS011;20477;51.390;8.102;2023-08-30T11:03:03;6.47;;;2.97;;
34212;SDS011;20477;51.390;8.102;2023-08-30T11:05:40;6.15;;;2.95;;
34212;SDS011;20477;51.390;8.102;2023-08-30T11:08:10;7.28;;;2.85;;
34212;SDS011;20477;51.390;8.102;2023-08-30T11:10:39;6.00;;;2.88;;
34212;SDS011;20477;51.390;8.102;2023-08-30T11:13:09;5.47;;;2.75;;
34212;SDS011;20477;51.390;8.102;2023-08-30T11:15:37;4.93;;;2.67;;
34212;SDS011;20477;51.390;8.102;2023-08-30T11:18:07;5.40;;;2.58;;
34212;SDS011;20477;51.390;8.102;2023-08-30T11:20:36;4.60;;;2.60;;
34212;SDS011;20477;51.390;8.102;2023-08-30T11:23:04;8.63;;;3.15;;
34212;SDS011;20477;51.390;8.102;2023-08-30T11:25:33;4.80;;;2.95;;
34212;SDS011;20477;51.390;8.102;2023-08-30T11:28:01;9.57;;;3.22;;
34212;SDS011;20477;51.390;8.102;2023-08-30T11:30:31;3.10;;;2.67;;
34212;SDS011;20477;51.390;8.102;2023-08-30T11:32:59;5.32;;;2.67;;
34212;SDS011;20477;51.390;8.102;2023-08-30T11:35:31;4.28;;;2.85;;
34212;SDS011;20477;51.390;8.102;2023-08-30T11:38:00;3.60;;;2.90;;
34212;SDS011;20477;51.390;8.102;2023-08-30T11:40:28;4.63;;;3.17;;
34212;SDS011;20477;51.390;8.102;2023-08-30T11:43:00;5.53;;;3.05;;
34212;SDS011;20477;51.390;8.102;2023-08-30T11:45:31;4.10;;;3.25;;
34212;SDS011;20477;51.390;8.102;2023-08-30T11:48:00;9.18;;;2.92;;
34212;SDS011;20477;51.390;8.102;2023-08-30T11:50:31;4.45;;;3.08;;
34212;SDS011;20477;51.390;8.102;2023-08-30T11:53:13;6.00;;;3.20;;
34212;SDS011;20477;51.390;8.102;2023-08-30T11:55:42;3.03;;;2.70;;
34212;SDS011;20477;51.390;8.102;2023-08-30T11:58:10;6.32;;;3.53;;
34212;SDS011;20477;51.390;8.102;2023-08-30T12:00:39;6.55;;;3.03;;
34212;SDS011;20477;51.390;8.102;2023-08-30T12:03:07;6.00;;;3.15;;
34212;SDS011;20477;51.390;8.102;2023-08-30T12:05:44;8.32;;;3.42;;
34212;SDS011;20477;51.390;8.102;2023-08-30T12:08:23;5.60;;;3.45;;
34212;SDS011;20477;51.390;8.102;2023-08-30T12:10:53;3.95;;;2.92;;
34212;SDS011;20477;51.390;8.102;2023-08-30T12:13:23;6.78;;;3.03;;
34212;SDS011;20477;51.390;8.102;2023-08-30T12:15:52;5.15;;;2.67;;
34212;SDS011;20477;51.390;8.102;2023-08-30T12:18:21;7.55;;;3.45;;
34212;SDS011;20477;51.390;8.102;2023-08-30T12:20:53;5.03;;;2.97;;
34212;SDS011;20477;51.390;8.102;2023-08-30T12:23:22;6.18;;;3.45;;
34212;SDS011;20477;51.390;8.102;2023-08-30T12:26:01;4.75;;;2.97;;
34212;SDS011;20477;51.390;8.102;2023-08-30T12:28:32;6.82;;;3.17;;
34212;SDS011;20477;51.390;8.102;2023-08-30T12:31:02;4.55;;;3.33;;
34212;SDS011;20477;51.390;8.102;2023-08-30T12:33:32;7.97;;;3.58;;
34212;SDS011;20477;51.390;8.102;2023-08-30T12:36:03;5.38;;;3.22;;
34212;SDS011;20477;51.390;8.102;2023-08-30T12:38:31;4.55;;;3.08;;
34212;SDS011;20477;51.390;8.102;2023-08-30T12:41:00;9.77;;;3.85;;
34212;SDS011;20477;51.390;8.102;2023-08-30T12:43:28;7.47;;;3.28;;
34212;SDS011;20477;51.390;8.102;2023-08-30T12:45:57;6.50;;;3.38;;
34212;SDS011;20477;51.390;8.102;2023-08-30T12:48:25;5.03;;;3.17;;
34212;SDS011;20477;51.390;8.102;2023-08-30T12:50:54;5.53;;;3.67;;
34212;SDS011;20477;51.390;8.102;2023-08-30T12:53:24;7.07;;;3.35;;
34212;SDS011;20477;51.390;8.102;2023-08-30T12:55:52;7.05;;;3.90;;
34212;SDS011;20477;51.390;8.102;2023-08-30T12:58:20;5.15;;;3.28;;
34212;SDS011;20477;51.390;8.102;2023-08-30T13:00:49;7.22;;;3.70;;
34212;SDS011;20477;51.390;8.102;2023-08-30T13:03:17;7.22;;;3.50;;
34212;SDS011;20477;51.390;8.102;2023-08-30T13:05:46;8.23;;;3.67;;
34212;SDS011;20477;51.390;8.102;2023-08-30T13:08:14;7.40;;;3.90;;
34212;SDS011;20477;51.390;8.102;2023-08-30T13:10:45;6.05;;;4.10;;
34212;SDS011;20477;51.390;8.102;2023-08-30T13:13:14;6.43;;;3.50;;
34212;SDS011;20477;51.390;8.102;2023-08-30T13:15:42;4.90;;;4.40;;
34212;SDS011;20477;51.390;8.102;2023-08-30T13:18:11;8.50;;;4.70;;
34212;SDS011;20477;51.390;8.102;2023-08-30T13:20:39;8.98;;;4.90;;
34212;SDS011;20477;51.390;8.102;2023-08-30T13:23:08;6.78;;;5.10;;
34212;SDS011;20477;51.390;8.102;2023-08-30T13:25:38;6.63;;;5.35;;
34212;SDS011;20477;51.390;8.102;2023-08-30T13:28:08;5.72;;;4.78;;
34212;SDS011;20477;51.390;8.102;2023-08-30T13:30:43;9.65;;;6.25;;
34212;SDS011;20477;51.390;8.102;2023-08-30T13:33:12;7.93;;;5.22;;
34212;SDS011;20477;51.390;8.102;2023-08-30T13:35:41;9.85;;;5.40;;
34212;SDS011;20477;51.390;8.102;2023-08-30T13:38:09;10.60;;;5.93;;
34212;SDS011;20477;51.390;8.102;2023-08-30T13:40:38;11.90;;;5.90;;
34212;SDS011;20477;51.390;8.102;2023-08-30T13:43:08;14.65;;;6.70;;
34212;SDS011;20477;51.390;8.102;2023-08-30T13:45:37;9.98;;;7.30;;
34212;SDS011;20477;51.390;8.102;2023-08-30T13:48:06;9.65;;;6.93;;
34212;SDS011;20477;51.390;8.102;2023-08-30T13:50:40;8.88;;;6.18;;
34212;SDS011;20477;51.390;8.102;2023-08-30T13:53:09;7.45;;;5.75;;
34212;SDS011;20477;51.390;8.102;2023-08-30T13:55:38;8.05;;;5.18;;
34212;SDS011;20477;51.390;8.102;2023-08-30T13:58:09;8.43;;;5.32;;
34212;SDS011;20477;51.390;8.102;2023-08-30T14:00:37;7.90;;;4.72;;
34212;SDS011;20477;51.390;8.102;2023-08-30T14:03:06;5.15;;;4.65;;
34212;SDS011;20477;51.390;8.102;2023-08-30T14:05:36;7.28;;;4.80;;
34212;SDS011;20477;51.390;8.102;2023-08-30T14:08:06;5.20;;;4.15;;
34212;SDS011;20477;51.390;8.102;2023-08-30T14:10:35;5.28;;;3.90;;
34212;SDS011;20477;51.390;8.102;2023-08-30T14:13:04;3.95;;;2.92;;
34212;SDS011;20477;51.390;8.102;2023-08-30T14:15:33;2.80;;;2.33;;
34212;SDS011;20477;51.390;8.102;2023-08-30T14:18:02;2.40;;;2.20;;
34212;SDS011;20477;51.390;8.102;2023-08-30T14:20:31;3.28;;;2.47;;
34212;SDS011;20477;51.390;8.102;2023-08-30T14:23:00;5.55;;;2.75;;
34212;SDS011;20477;51.390;8.102;2023-08-30T14:25:28;3.08;;;2.33;;
34212;SDS011;20477;51.390;8.102;2023-08-30T14:27:56;3.83;;;2.63;;
34212;SDS011;20477;51.390;8.102;2023-08-30T14:30:25;4.05;;;2.08;;
34212;SDS011;20477;51.390;8.102;2023-08-30T14:32:55;5.85;;;2.28;;
34212;SDS011;20477;51.390;8.102;2023-08-30T14:35:24;4.60;;;2.45;;
34212;SDS011;20477;51.390;8.102;2023-08-30T14:37:52;2.38;;;1.70;;
34212;SDS011;20477;51.390;8.102;2023-08-30T14:40:21;3.90;;;2.28;;
34212;SDS011;20477;51.390;8.102;2023-08-30T14:42:49;6.40;;;2.20;;
34212;SDS011;20477;51.390;8.102;2023-08-30T14:45:18;7.97;;;2.03;;
34212;SDS011;20477;51.390;8.102;2023-08-30T14:47:46;3.67;;;2.10;;
34212;SDS011;20477;51.390;8.102;2023-08-30T14:50:16;3.10;;;1.50;;
34212;SDS011;20477;51.390;8.102;2023-08-30T14:52:44;7.32;;;2.22;;